Time;durP1;ratioP1;P1;durP2;ratioP2;P2;SDS_P1;SDS_P2;PMS_P1;PMS_P2;Temp;Humidity;BMP_temperature;BMP_pressure;BME280_temperature;BME280_humidity;BME280_pressure;Samples;Min_cycle;Max_cycle;Signal;HPM_P1;HPM_P2
2024/01/11 00:01:29;;;;;;;67.63;30.47;;;;;;;-9.68;100.00;102512.19;5043925;28;20450;-72
2024/01/11 00:03:56;;;;;;;84.30;34.90;;;;;;;-9.72;100.00;102515.22;5045468;28;20844;-73
2024/01/11 00:06:22;;;;;;;75.13;33.63;;;;;;;-9.72;100.00;102517.78;5043550;28;20541;-71
2024/01/11 00:08:49;;;;;;;78.37;31.30;;;;;;;-9.72;100.00;102513.47;5045332;28;20449;-72
2024/01/11 00:11:15;;;;;;;71.17;32.03;;;;;;;-9.74;100.00;102528.13;5049360;28;20801;-72
2024/01/11 00:13:41;;;;;;;75.20;30.93;;;;;;;-9.66;100.00;102523.09;5048367;28;20449;-72
2024/01/11 00:16:08;;;;;;;69.33;30.53;;;;;;;-9.69;100.00;102522.59;5040806;28;20461;-72
2024/01/11 00:18:34;;;;;;;72.57;31.23;;;;;;;-9.69;100.00;102513.16;5043594;28;20457;-72
2024/01/11 00:21:02;;;;;;;71.47;31.33;;;;;;;-9.71;100.00;102515.06;5046148;28;20453;-71
2024/01/11 00:23:28;;;;;;;70.03;31.20;;;;;;;-9.69;100.00;102513.16;5043497;28;20469;-72
2024/01/11 00:25:54;;;;;;;76.23;32.93;;;;;;;-9.69;100.00;102515.72;5047997;28;20457;-72
2024/01/11 00:28:21;;;;;;;58.70;27.33;;;;;;;-9.71;100.00;102511.69;5045082;28;20971;-72
2024/01/11 00:30:47;;;;;;;63.83;28.60;;;;;;;-9.72;100.00;102515.22;5042262;28;20543;-72
2024/01/11 00:33:14;;;;;;;69.17;29.27;;;;;;;-9.75;100.00;102515.50;5045369;28;20469;-73
2024/01/11 00:35:40;;;;;;;69.20;28.03;;;;;;;-9.71;100.00;102504.03;5044749;28;20521;-72
2024/01/11 00:38:07;;;;;;;75.47;31.60;;;;;;;-9.77;100.00;102492.66;5044521;28;20461;-72
2024/01/11 00:40:34;;;;;;;70.80;29.83;;;;;;;-9.78;100.00;102495.34;5044696;28;20453;-73
2024/01/11 00:43:00;;;;;;;68.53;31.23;;;;;;;-9.79;100.00;102491.19;5043639;28;20487;-72
2024/01/11 00:45:26;;;;;;;74.00;30.27;;;;;;;-9.82;100.00;102479.53;5040392;28;20489;-72
2024/01/11 00:47:53;;;;;;;77.10;31.03;;;;;;;-9.83;100.00;102479.66;5041886;28;20504;-72
2024/01/11 00:50:19;;;;;;;82.03;31.77;;;;;;;-9.85;100.00;102476.44;5047742;28;20458;-71
2024/01/11 00:52:45;;;;;;;87.57;34.00;;;;;;;-9.86;100.00;102469.72;5045503;28;20453;-72
2024/01/11 00:55:13;;;;;;;75.60;31.83;;;;;;;-9.89;100.00;102465.72;5049143;28;20469;-72
2024/01/11 00:57:39;;;;;;;64.40;30.60;;;;;;;-9.88;100.00;102463.97;5043873;28;20822;-72
2024/01/11 01:00:07;;;;;;;70.47;30.93;;;;;;;-9.90;100.00;102455.63;5047861;28;20461;-72
2024/01/11 01:02:34;;;;;;;72.70;33.13;;;;;;;-9.93;100.00;102463.59;5043609;28;20473;-72
2024/01/11 01:05:00;;;;;;;77.30;33.03;;;;;;;-9.97;100.00;102460.53;5041650;28;20991;-72
2024/01/11 01:07:26;;;;;;;76.10;32.60;;;;;;;-9.96;100.00;102472.38;5050506;28;20836;-74
2024/01/11 01:09:53;;;;;;;80.07;35.40;;;;;;;-9.89;100.00;102481.03;5045243;28;20448;-72
2024/01/11 01:12:20;;;;;;;74.83;32.53;;;;;;;-9.88;100.00;102486.97;5045750;28;20458;-72
2024/01/11 01:14:47;;;;;;;79.87;31.57;;;;;;;-9.83;100.00;102488.13;5038293;28;20485;-72
2024/01/11 01:17:13;;;;;;;76.23;32.57;;;;;;;-9.83;100.00;102489.88;5045224;28;20466;-72
2024/01/11 01:19:39;;;;;;;75.57;31.77;;;;;;;-9.85;100.00;102482.34;5039718;28;20454;-72
2024/01/11 01:22:06;;;;;;;73.67;31.90;;;;;;;-9.85;100.00;102477.25;5048042;28;20457;-72
2024/01/11 01:24:32;;;;;;;69.90;32.93;;;;;;;-9.83;100.00;102495.00;5043428;28;20559;-72
2024/01/11 01:27:00;;;;;;;73.67;34.67;;;;;;;-9.83;100.00;102505.22;5044086;28;20528;-73
2024/01/11 01:29:28;;;;;;;78.60;31.73;;;;;;;-9.86;100.00;102496.09;5043131;28;20468;-72
2024/01/11 01:31:54;;;;;;;74.13;32.27;;;;;;;-9.92;100.00;102506.09;5043029;28;20457;-72
2024/01/11 01:34:20;;;;;;;80.77;30.97;;;;;;;-9.93;100.00;102495.03;5046874;28;20481;-72
2024/01/11 01:36:46;;;;;;;73.23;31.70;;;;;;;-9.90;100.00;102511.84;5044519;28;20450;-72
2024/01/11 01:39:13;;;;;;;73.03;31.80;;;;;;;-9.90;100.00;102487.09;5045026;28;20975;-72
2024/01/11 01:41:40;;;;;;;72.00;32.33;;;;;;;-9.94;100.00;102474.78;5046531;28;20458;-72
2024/01/11 01:44:06;;;;;;;72.20;33.03;;;;;;;-9.97;100.00;102478.44;5047526;28;20914;-72
2024/01/11 01:46:34;;;;;;;73.43;33.07;;;;;;;-9.94;100.00;102490.09;5049177;28;20449;-72
2024/01/11 01:49:01;;;;;;;68.20;30.23;;;;;;;-9.92;100.00;102480.53;5046334;28;20470;-72
2024/01/11 01:51:30;;;;;;;87.27;32.20;;;;;;;-9.94;100.00;102478.13;5044332;28;20480;-72
2024/01/11 01:53:58;;;;;;;69.90;31.57;;;;;;;-9.93;100.00;102473.81;5043217;28;20460;-72
2024/01/11 01:56:24;;;;;;;69.80;30.87;;;;;;;-9.94;100.00;102482.44;5046180;28;20519;-71
2024/01/11 01:58:52;;;;;;;79.57;32.30;;;;;;;-9.92;100.00;102472.88;5045318;28;20461;-72
2024/01/11 02:01:21;;;;;;;74.57;32.17;;;;;;;-9.96;100.00;102464.69;5047186;28;20453;-72
2024/01/11 02:03:51;;;;;;;74.47;32.70;;;;;;;-9.94;100.00;102462.78;5041372;28;20482;-73
2024/01/11 02:06:17;;;;;;;79.47;32.30;;;;;;;-9.97;100.00;102480.16;5042018;28;20462;-72
2024/01/11 02:08:44;;;;;;;78.60;32.27;;;;;;;-9.89;100.00;102477.69;5038364;28;20477;-72
2024/01/11 02:11:11;;;;;;;73.77;32.43;;;;;;;-9.94;100.00;102470.44;5040341;28;20453;-71
2024/01/11 02:13:38;;;;;;;78.87;31.90;;;;;;;-9.97;100.00;102452.06;5047040;28;20488;-73
2024/01/11 02:16:05;;;;;;;66.53;30.63;;;;;;;-9.98;100.00;102460.69;5044961;28;20457;-72
2024/01/11 02:18:32;;;;;;;68.57;29.27;;;;;;;-9.98;100.00;102460.69;5041784;28;20466;-72
2024/01/11 02:20:59;;;;;;;84.80;31.90;;;;;;;-9.97;100.00;102460.53;5041904;28;21044;-72
2024/01/11 02:23:28;;;;;;;74.23;31.70;;;;;;;-10.01;100.00;102471.19;5039527;28;20474;-73
2024/01/11 02:25:56;;;;;;;68.60;29.93;;;;;;;-9.98;100.00;102453.03;5046163;28;20449;-72
2024/01/11 02:28:22;;;;;;;73.60;31.40;;;;;;;-10.01;100.00;102441.34;5041137;28;20467;-74
2024/01/11 02:30:48;;;;;;;71.30;31.67;;;;;;;-10.01;100.00;102441.34;5036563;28;20477;-72
2024/01/11 02:33:16;;;;;;;64.13;29.60;;;;;;;-10.01;100.00;102433.69;5042138;28;20477;-72
2024/01/11 02:35:43;;;;;;;71.60;30.60;;;;;;;-10.00;100.00;102442.94;5041329;28;20477;-73
2024/01/11 02:38:09;;;;;;;70.30;28.63;;;;;;;-9.95;100.00;102434.84;5045535;28;20463;-72
2024/01/11 02:40:38;;;;;;;58.57;27.53;;;;;;;-9.95;100.00;102434.84;5045803;28;20458;-72
2024/01/11 02:43:10;;;;;;;70.37;30.43;;;;;;;-9.96;100.00;102417.91;5045331;28;20469;-72
2024/01/11 02:45:36;;;;;;;76.17;30.40;;;;;;;-9.96;100.00;102410.22;5045699;28;21192;-72
2024/01/11 02:48:03;;;;;;;64.93;28.53;;;;;;;-9.98;100.00;102428.28;5046059;28;21091;-72
2024/01/11 02:50:29;;;;;;;62.67;27.43;;;;;;;-9.94;100.00;102427.03;5039561;28;20469;-72
2024/01/11 02:52:55;;;;;;;62.23;27.87;;;;;;;-9.95;100.00;102422.88;5044995;28;20465;-72
2024/01/11 02:55:22;;;;;;;63.77;28.63;;;;;;;-9.93;100.00;102425.28;5047450;28;20852;-72
2024/01/11 02:57:48;;;;;;;72.27;27.70;;;;;;;-9.93;100.00;102428.63;5043686;28;20528;-72
2024/01/11 03:00:16;;;;;;;62.03;27.77;;;;;;;-9.92;100.00;102420.03;5035884;28;20469;-72
2024/01/11 03:02:42;;;;;;;69.63;29.73;;;;;;;-9.91;100.00;102431.03;5042222;28;20585;-72
2024/01/11 03:05:08;;;;;;;60.53;27.13;;;;;;;-9.87;100.00;102437.47;5042983;28;20485;-72
2024/01/11 03:07:35;;;;;;;69.37;27.23;;;;;;;-9.79;100.00;102438.31;5042082;28;20457;-72
2024/01/11 03:10:01;;;;;;;63.33;27.20;;;;;;;-9.76;100.00;102444.88;5045117;28;20465;-72
2024/01/11 03:12:28;;;;;;;70.80;27.03;;;;;;;-9.75;100.00;102446.50;5043703;28;20460;-72
2024/01/11 03:14:55;;;;;;;60.00;26.93;;;;;;;-9.74;100.00;102443.00;5039868;28;20840;-72
2024/01/11 03:17:22;;;;;;;68.00;29.67;;;;;;;-9.76;100.00;102437.22;5044112;28;20457;-72
2024/01/11 03:19:48;;;;;;;60.97;26.67;;;;;;;-9.79;100.00;102433.22;5043144;28;20446;-72
2024/01/11 03:22:15;;;;;;;55.60;26.07;;;;;;;-9.81;100.00;102447.91;5037985;28;20457;-72
2024/01/11 03:24:41;;;;;;;66.40;26.23;;;;;;;-9.76;100.00;102455.13;5046079;28;20489;-72
2024/01/11 03:27:07;;;;;;;65.30;26.83;;;;;;;-9.73;100.00;102458.16;5046602;28;20523;-72
2024/01/11 03:29:34;;;;;;;69.07;28.73;;;;;;;-9.74;100.00;102478.78;5037644;28;20460;-72
2024/01/11 03:32:00;;;;;;;71.40;29.93;;;;;;;-9.83;100.00;102477.88;5040915;28;20457;-72
2024/01/11 03:34:28;;;;;;;65.63;27.10;;;;;;;-9.82;100.00;102478.72;5048070;28;20481;-72
2024/01/11 03:36:54;;;;;;;64.13;27.17;;;;;;;-9.84;100.00;102478.06;5045085;28;20457;-72
2024/01/11 03:39:23;;;;;;;68.93;26.70;;;;;;;-9.87;100.00;102471.50;5045019;28;20988;-72
2024/01/11 03:41:50;;;;;;;70.00;28.63;;;;;;;-9.82;100.00;102476.97;5045488;28;20458;-72
2024/01/11 03:44:16;;;;;;;71.03;28.90;;;;;;;-9.82;100.00;102459.06;5048284;28;20496;-72
2024/01/11 03:46:42;;;;;;;65.37;29.33;;;;;;;-9.85;100.00;102453.44;5048751;28;20511;-72
2024/01/11 03:49:09;;;;;;;69.90;29.03;;;;;;;-9.85;100.00;102441.47;5038593;28;20462;-72
2024/01/11 03:51:37;;;;;;;63.93;29.27;;;;;;;-9.83;100.00;102436.22;5037471;28;20465;-72
2024/01/11 03:54:03;;;;;;;66.67;28.27;;;;;;;-9.86;100.00;102439.88;5045029;28;20568;-72
2024/01/11 03:56:30;;;;;;;66.93;28.83;;;;;;;-9.86;100.00;102444.97;5045834;28;20457;-72
2024/01/11 03:58:56;;;;;;;59.00;25.63;;;;;;;-9.89;100.00;102426.59;5044206;28;20458;-72
2024/01/11 04:01:22;;;;;;;61.53;27.00;;;;;;;-9.88;100.00;102433.31;5044021;28;20804;-72
2024/01/11 04:03:49;;;;;;;60.20;26.60;;;;;;;-9.84;100.00;102424.41;5044980;28;20856;-72
2024/01/11 04:06:20;;;;;;;67.83;26.63;;;;;;;-9.88;100.00;102434.09;5043615;28;20999;-72
2024/01/11 04:08:48;;;;;;;71.03;27.60;;;;;;;-9.86;100.00;102442.44;5043735;28;20448;-72
2024/01/11 04:11:15;;;;;;;59.50;25.63;;;;;;;-9.85;100.00;102445.78;5040767;28;20453;-72
2024/01/11 04:13:41;;;;;;;61.90;25.07;;;;;;;-9.83;100.00;102452.34;5046465;28;20453;-72
2024/01/11 04:16:08;;;;;;;58.53;25.43;;;;;;;-9.82;100.00;102466.75;5042285;28;20461;-72
2024/01/11 04:18:34;;;;;;;58.80;25.97;;;;;;;-9.79;100.00;102473.31;5041120;28;20547;-73
2024/01/11 04:21:00;;;;;;;62.13;25.13;;;;;;;-9.79;100.00;102474.09;5043187;28;20445;-73
2024/01/11 04:23:27;;;;;;;61.60;26.77;;;;;;;-9.72;100.00;102480.25;5043596;28;20474;-73
2024/01/11 04:25:54;;;;;;;58.97;25.57;;;;;;;-9.73;100.00;102463.28;5040892;28;20553;-73
2024/01/11 04:28:21;;;;;;;59.53;25.43;;;;;;;-9.74;100.00;102455.78;5039997;28;20454;-73
2024/01/11 04:30:47;;;;;;;58.77;25.27;;;;;;;-9.73;100.00;102439.50;5046903;28;20469;-72
2024/01/11 04:33:13;;;;;;;64.50;26.53;;;;;;;-9.74;100.00;102441.25;5045536;28;20996;-72
2024/01/11 04:35:40;;;;;;;58.37;24.50;;;;;;;-9.72;100.00;102439.34;5046298;28;20466;-72
2024/01/11 04:38:06;;;;;;;66.30;26.53;;;;;;;-9.74;100.00;102459.13;5042823;28;20450;-72
2024/01/11 04:40:32;;;;;;;64.47;27.13;;;;;;;-9.73;100.00;102455.63;5044859;28;20461;-72
2024/01/11 04:42:59;;;;;;;67.23;27.20;;;;;;;-9.71;100.00;102429.91;5045835;28;20449;-72
2024/01/11 04:45:25;;;;;;;61.03;26.87;;;;;;;-9.73;100.00;102416.50;5041524;28;20482;-72
2024/01/11 04:47:52;;;;;;;62.43;25.67;;;;;;;-9.75;100.00;102420.94;5045017;28;20449;-72
2024/01/11 04:50:18;;;;;;;74.93;27.70;;;;;;;-9.72;100.00;102418.91;5042892;28;20527;-72
2024/01/11 04:52:45;;;;;;;63.37;29.70;;;;;;;-9.74;100.00;102420.78;5042255;28;20467;-72
2024/01/11 04:55:11;;;;;;;62.97;26.83;;;;;;;-9.73;100.00;102416.50;5045170;28;20469;-72
2024/01/11 04:57:37;;;;;;;60.40;25.43;;;;;;;-9.71;100.00;102417.13;5051116;28;20467;-72
2024/01/11 05:00:07;;;;;;;60.37;25.87;;;;;;;-9.67;100.00;102428.66;5042355;28;20462;-72
2024/01/11 05:02:33;;;;;;;61.57;25.57;;;;;;;-9.67;100.00;102444.81;5044907;28;20458;-72
2024/01/11 05:05:00;;;;;;;71.23;27.57;;;;;;;-9.65;100.00;102457.44;5050732;28;20496;-72
2024/01/11 05:07:28;;;;;;;62.57;25.43;;;;;;;-9.60;100.00;102450.13;5047405;28;20465;-72
2024/01/11 05:09:54;;;;;;;62.07;25.30;;;;;;;-9.57;100.00;102445.50;5042253;28;20448;-72
2024/01/11 05:12:20;;;;;;;59.77;27.00;;;;;;;-9.53;100.00;102440.94;5042863;28;21328;-72
2024/01/11 05:14:47;;;;;;;70.53;29.50;;;;;;;-9.47;100.00;102445.44;5044325;28;20473;-72
2024/01/11 05:17:14;;;;;;;64.03;27.17;;;;;;;-9.43;100.00;102451.84;5044597;28;20938;-72
2024/01/11 05:19:41;;;;;;;64.70;27.50;;;;;;;-9.37;100.00;102446.13;5038581;28;20996;-72
2024/01/11 05:22:07;;;;;;;66.80;28.07;;;;;;;-9.28;100.00;102450.31;5045859;28;20474;-72
2024/01/11 05:24:33;;;;;;;66.70;28.97;;;;;;;-9.22;100.00;102455.66;5043826;28;20492;-73
2024/01/11 05:27:00;;;;;;;80.23;29.80;;;;;;;-9.16;100.00;102460.16;5044717;28;20480;-72
2024/01/11 05:29:26;;;;;;;68.63;28.47;;;;;;;-9.09;100.00;102466.28;5040163;28;20462;-72
2024/01/11 05:31:52;;;;;;;74.73;30.63;;;;;;;-9.00;100.00;102462.00;5039623;28;20495;-72
2024/01/11 05:34:20;;;;;;;70.40;29.17;;;;;;;-8.93;100.00;102458.69;5042608;28;20494;-72
2024/01/11 05:36:46;;;;;;;68.40;30.47;;;;;;;-8.82;100.00;102437.13;5037509;28;20979;-72
2024/01/11 05:39:13;;;;;;;75.27;32.97;;;;;;;-8.74;100.00;102424.38;5038083;28;20490;-72
2024/01/11 05:41:39;;;;;;;70.97;31.93;;;;;;;-8.70;100.00;102411.09;5041864;28;20458;-72
2024/01/11 05:44:05;;;;;;;76.33;31.73;;;;;;;-8.66;100.00;102396.22;5041275;28;20561;-72
2024/01/11 05:46:33;;;;;;;68.37;30.57;;;;;;;-8.64;100.00;102369.50;5039763;28;20816;-72
2024/01/11 05:49:00;;;;;;;73.67;33.53;;;;;;;-8.62;100.00;102375.28;5040185;28;20811;-72
2024/01/11 05:51:27;;;;;;;69.77;30.93;;;;;;;-8.61;100.00;102405.06;5044780;28;20467;-72
2024/01/11 05:53:54;;;;;;;73.50;29.23;;;;;;;-8.60;100.00;102396.41;5036707;28;20479;-72
2024/01/11 05:56:21;;;;;;;75.57;31.67;;;;;;;-8.61;100.00;102394.81;5044973;28;20552;-72
2024/01/11 05:58:48;;;;;;;65.13;30.13;;;;;;;-8.59;100.00;102410.03;5039195;28;20466;-72
2024/01/11 06:01:14;;;;;;;73.40;30.93;;;;;;;-8.59;100.00;102420.25;5044545;28;20473;-72
2024/01/11 06:03:41;;;;;;;75.40;31.80;;;;;;;-8.59;100.00;102412.59;5043697;28;20458;-72
2024/01/11 06:06:07;;;;;;;76.00;32.60;;;;;;;-8.59;100.00;102413.38;5039016;28;20965;-72
2024/01/11 06:08:35;;;;;;;73.90;30.30;;;;;;;-8.55;100.00;102393.41;5044477;28;20960;-72
2024/01/11 06:11:01;;;;;;;72.87;33.13;;;;;;;-8.53;100.00;102368.41;5043067;28;20830;-72
2024/01/11 06:13:28;;;;;;;82.80;33.03;;;;;;;-8.54;100.00;102385.53;5042868;28;20560;-72
2024/01/11 06:15:54;;;;;;;67.47;30.23;;;;;;;-8.51;100.00;102385.22;5047392;28;20456;-72
2024/01/11 06:18:21;;;;;;;69.57;29.73;;;;;;;-8.49;100.00;102367.94;5043863;28;20460;-72
2024/01/11 06:20:47;;;;;;;76.07;30.93;;;;;;;-8.48;100.00;102377.25;5042364;28;20454;-72
2024/01/11 06:23:13;;;;;;;77.47;31.87;;;;;;;-8.45;100.00;102383.81;5043041;28;20453;-72
2024/01/11 06:25:41;;;;;;;76.13;30.97;;;;;;;-8.42;100.00;102412.47;5037222;28;20516;-72
2024/01/11 06:28:09;;;;;;;75.50;31.90;;;;;;;-8.37;100.00;102404.28;5043972;28;20463;-72
2024/01/11 06:30:36;;;;;;;77.50;33.20;;;;;;;-8.36;100.00;102416.13;5042726;28;20457;-72
2024/01/11 06:33:03;;;;;;;81.93;34.77;;;;;;;-8.37;100.00;102414.53;5043026;28;20458;-72
2024/01/11 06:35:29;;;;;;;76.33;31.07;;;;;;;-8.36;100.00;102399.03;5046200;28;20473;-72
2024/01/11 06:37:55;;;;;;;77.77;31.20;;;;;;;-8.36;100.00;102409.28;5047629;28;20461;-72
2024/01/11 06:40:22;;;;;;;68.13;29.33;;;;;;;-8.35;100.00;102420.31;5037909;28;20459;-72
2024/01/11 06:42:49;;;;;;;71.93;32.50;;;;;;;-8.37;100.00;102419.66;5042632;28;20979;-72
2024/01/11 06:45:16;;;;;;;75.37;31.63;;;;;;;-8.37;100.00;102414.53;5043043;28;20565;-72
2024/01/11 06:47:45;;;;;;;71.73;29.73;;;;;;;-8.39;100.00;102393.41;5044302;28;20461;-72
2024/01/11 06:50:12;;;;;;;76.50;32.60;;;;;;;-8.40;100.00;102399.47;5042782;28;20481;-72
2024/01/11 06:52:39;;;;;;;70.57;30.00;;;;;;;-8.41;100.00;102388.44;5042678;28;20461;-72
2024/01/11 06:55:06;;;;;;;71.17;29.93;;;;;;;-8.43;100.00;102387.78;5043614;28;20579;-72
2024/01/11 06:57:32;;;;;;;76.10;30.60;;;;;;;-8.44;100.00;102391.31;5040157;28;20465;-72
2024/01/11 07:00:00;;;;;;;76.53;30.67;;;;;;;-8.44;100.00;102385.41;5041367;28;20455;-72
2024/01/11 07:02:26;;;;;;;62.80;27.37;;;;;;;-8.45;100.00;102384.59;5034934;28;20809;-72
2024/01/11 07:04:53;;;;;;;80.87;31.37;;;;;;;-8.45;100.00;102391.50;5040773;28;20489;-72
2024/01/11 07:07:19;;;;;;;78.90;30.33;;;;;;;-8.44;100.00;102418.69;5040797;28;20545;-72
2024/01/11 07:09:45;;;;;;;67.90;29.30;;;;;;;-8.42;100.00;102421.91;5040116;28;20930;-72
2024/01/11 07:12:12;;;;;;;77.53;30.43;;;;;;;-8.39;100.00;102445.44;5042943;28;20467;-72
2024/01/11 07:14:38;;;;;;;73.73;29.80;;;;;;;-8.39;100.00;102442.09;5037938;28;20474;-72
2024/01/11 07:17:06;;;;;;;75.97;28.97;;;;;;;-8.39;100.00;102419.81;5043880;28;20486;-72
2024/01/11 07:19:32;;;;;;;68.27;30.90;;;;;;;-8.38;100.00;102415.50;5038424;28;20473;-72
2024/01/11 07:21:58;;;;;;;65.97;30.57;;;;;;;-8.37;100.00;102409.41;5040880;28;20465;-72
2024/01/11 07:24:25;;;;;;;80.77;33.27;;;;;;;-8.36;100.00;102393.91;5041798;28;20475;-72
2024/01/11 07:26:51;;;;;;;78.03;32.63;;;;;;;-8.33;100.00;102396.13;5040972;28;20464;-72
2024/01/11 07:29:17;;;;;;;74.00;32.33;;;;;;;-8.31;100.00;102388.28;5038810;28;20974;-72
2024/01/11 07:31:44;;;;;;;78.73;32.80;;;;;;;-8.30;100.00;102387.31;5045197;28;20461;-72
2024/01/11 07:34:11;;;;;;;66.40;29.63;;;;;;;-8.28;100.00;102382.88;5036656;28;20495;-72
2024/01/11 07:36:38;;;;;;;68.87;29.23;;;;;;;-8.26;100.00;102389.44;5042529;28;20516;-72
2024/01/11 07:39:04;;;;;;;74.53;31.33;;;;;;;-8.24;100.00;102392.63;5036528;28;20466;-72
2024/01/11 07:41:30;;;;;;;76.57;29.83;;;;;;;-8.23;100.00;102398.56;5047932;28;20453;-72
2024/01/11 07:43:59;;;;;;;72.30;32.50;;;;;;;-8.23;100.00;102391.66;5038658;28;20566;-72
2024/01/11 07:46:25;;;;;;;71.80;31.33;;;;;;;-8.21;100.00;102386.38;5039720;28;20521;-72
2024/01/11 07:48:52;;;;;;;79.10;32.23;;;;;;;-8.18;100.00;102378.34;5040950;28;20483;-72
2024/01/11 07:51:20;;;;;;;78.00;31.90;;;;;;;-8.16;100.00;102373.88;5040134;28;20824;-72
2024/01/11 07:53:46;;;;;;;72.67;30.83;;;;;;;-8.12;100.00;102370.81;5042525;28;20517;-72
2024/01/11 07:56:13;;;;;;;74.50;32.40;;;;;;;-8.09;100.00;102377.38;5043213;28;20460;-72
2024/01/11 07:58:41;;;;;;;74.57;31.83;;;;;;;-8.06;100.00;102385.56;5041221;28;20462;-72
2024/01/11 08:01:10;;;;;;;76.77;32.40;;;;;;;-8.02;100.00;102393.72;5039356;28;20465;-72
2024/01/11 08:03:36;;;;;;;74.70;31.80;;;;;;;-7.98;100.00;102402.72;5040878;28;20483;-72
2024/01/11 08:06:03;;;;;;;69.87;31.33;;;;;;;-7.95;100.00;102420.31;5034960;28;20493;-72
2024/01/11 08:08:30;;;;;;;70.57;30.47;;;;;;;-7.90;100.00;102408.63;5039081;28;20454;-72
2024/01/11 08:10:56;;;;;;;78.73;32.53;;;;;;;-7.88;100.00;102393.88;5040971;28;21202;-72
2024/01/11 08:13:23;;;;;;;76.00;32.03;;;;;;;-7.84;100.00;102396.91;5041320;28;20461;-72
2024/01/11 08:15:49;;;;;;;81.80;32.60;;;;;;;-7.81;100.00;102405.09;5035359;28;20480;-72
2024/01/11 08:18:15;;;;;;;75.67;31.83;;;;;;;-7.78;100.00;102391.13;5039473;28;20770;-72
2024/01/11 08:20:42;;;;;;;78.20;32.47;;;;;;;-7.75;100.00;102393.41;5039758;28;20467;-72
2024/01/11 08:23:08;;;;;;;112.37;41.43;;;;;;;-7.72;100.00;102414.38;5042781;28;20456;-72
2024/01/11 08:25:36;;;;;;;90.00;41.83;;;;;;;-7.67;100.00;102417.25;5040036;28;20478;-72
2024/01/11 08:28:02;;;;;;;73.60;32.60;;;;;;;-7.62;100.00;102415.00;5043867;28;20465;-72
2024/01/11 08:30:29;;;;;;;78.50;33.93;;;;;;;-7.58;100.00;102406.03;5039400;28;20459;-72
2024/01/11 08:32:56;;;;;;;75.33;35.77;;;;;;;-7.51;100.00;102426.72;5041357;28;21184;-72
2024/01/11 08:35:22;;;;;;;61.20;29.57;;;;;;;-7.44;100.00;102425.09;5042912;28;20523;-72
2024/01/11 08:37:49;;;;;;;72.43;35.03;;;;;;;-7.37;100.00;102402.94;5045969;28;20824;-72
2024/01/11 08:40:15;;;;;;;77.90;34.53;;;;;;;-7.28;100.00;102407.91;5047493;28;20885;-73
2024/01/11 08:42:43;;;;;;;73.37;33.23;;;;;;;-7.21;100.00;102424.22;5044087;28;20461;-72
2024/01/11 08:45:10;;;;;;;73.67;34.40;;;;;;;-7.12;100.00;102420.69;5042568;28;20484;-73
2024/01/11 08:47:38;;;;;;;70.03;30.97;;;;;;;-6.98;100.00;102414.06;5044887;28;20474;-74
2024/01/11 08:50:06;;;;;;;74.20;34.60;;;;;;;-6.92;100.00;102395.41;5043909;28;20511;-74
2024/01/11 08:52:33;;;;;;;76.73;32.70;;;;;;;-6.83;100.00;102391.84;5043839;28;20963;-71
2024/01/11 08:54:59;;;;;;;75.30;32.43;;;;;;;-6.76;100.00;102380.72;5041828;28;20905;-73
2024/01/11 08:57:25;;;;;;;76.47;32.63;;;;;;;-6.69;100.00;102381.66;5045915;28;20461;-73
2024/01/11 08:59:54;;;;;;;71.90;31.67;;;;;;;-6.63;100.00;102377.63;5046053;28;20450;-72
2024/01/11 09:02:20;;;;;;;76.07;33.63;;;;;;;-6.60;100.00;102374.69;5044759;28;20514;-71
2024/01/11 09:04:48;;;;;;;69.67;29.73;;;;;;;-6.57;100.00;102372.56;5039532;28;21042;-71
2024/01/11 09:07:15;;;;;;;64.57;32.10;;;;;;;-6.52;100.00;102380.56;5045455;28;20466;-72
2024/01/11 09:09:41;;;;;;;67.00;30.23;;;;;;;-6.49;100.00;102384.56;5043803;28;20532;-72
2024/01/11 09:12:08;;;;;;;70.87;30.80;;;;;;;-6.44;100.00;102379.72;5036810;28;20465;-70
2024/01/11 09:14:34;;;;;;;68.03;29.13;;;;;;;-6.41;100.00;102384.53;5040409;28;21011;-72
2024/01/11 09:17:02;;;;;;;64.37;30.03;;;;;;;-6.37;100.00;102381.44;5045102;28;20464;-72
2024/01/11 09:19:28;;;;;;;71.17;30.30;;;;;;;-6.35;100.00;102394.13;5041534;28;20466;-71
2024/01/11 09:21:55;;;;;;;67.07;31.53;;;;;;;-6.31;100.00;102409.03;5038988;28;20493;-72
2024/01/11 09:24:22;;;;;;;68.23;31.53;;;;;;;-6.28;100.00;102406.13;5044537;28;20525;-72
2024/01/11 09:26:51;;;;;;;59.87;29.43;;;;;;;-6.24;100.00;102399.69;5043283;28;20489;-72
2024/01/11 09:29:17;;;;;;;74.30;31.37;;;;;;;-6.19;100.00;102396.59;5042859;28;21279;-71
2024/01/11 09:31:44;;;;;;;67.10;31.00;;;;;;;-6.16;100.00;102376.47;5039362;28;20473;-71
2024/01/11 09:34:12;;;;;;;63.63;29.03;;;;;;;-6.10;100.00;102375.81;5038852;28;20489;-72
2024/01/11 09:36:39;;;;;;;60.40;28.90;;;;;;;-6.05;100.00;102386.38;5041041;28;20462;-72
2024/01/11 09:39:05;;;;;;;60.67;27.80;;;;;;;-6.00;100.00;102360.13;5041075;28;20457;-73
2024/01/11 09:41:32;;;;;;;72.37;29.77;;;;;;;-5.93;100.00;102366.16;5041891;28;20461;-70
2024/01/11 09:44:01;;;;;;;59.53;29.00;;;;;;;-5.85;100.00;102356.59;5037181;28;20477;-72
2024/01/11 09:46:28;;;;;;;66.60;28.93;;;;;;;-5.77;100.00;102342.84;5035950;28;20482;-72
2024/01/11 09:48:56;;;;;;;69.27;32.33;;;;;;;-5.71;100.00;102347.28;5040409;28;20466;-72
2024/01/11 09:51:26;;;;;;;55.13;26.73;;;;;;;-5.63;100.00;102360.88;5034190;28;20795;-74
2024/01/11 09:53:55;;;;;;;60.50;26.17;;;;;;;-5.55;100.00;102353.06;5041667;28;20820;-72
2024/01/11 09:56:27;;;;;;;62.10;29.70;;;;;;;-5.48;100.00;102358.31;5042216;28;20511;-73
2024/01/11 09:58:53;;;;;;;63.30;27.37;;;;;;;-5.43;100.00;102367.09;5034956;28;20553;-73
2024/01/11 10:01:21;;;;;;;63.77;29.57;;;;;;;-5.38;100.00;102341.59;5043444;28;20476;-73
2024/01/11 10:03:48;;;;;;;58.07;26.43;;;;;;;-5.32;100.00;102334.94;5037507;28;20462;-74
2024/01/11 10:06:15;;;;;;;61.90;26.57;;;;;;;-5.27;100.00;102343.75;5038925;28;20488;-73
2024/01/11 10:08:43;;;;;;;50.33;24.63;;;;;;;-5.22;100.00;102350.94;5034534;28;20895;-73
2024/01/11 10:11:09;;;;;;;48.87;22.60;;;;;;;-5.17;100.00;102364.06;5042106;28;20469;-73
2024/01/11 10:13:37;;;;;;;57.73;25.63;;;;;;;-5.12;100.00;102367.72;5036882;28;20457;-72
2024/01/11 10:16:08;;;;;;;54.67;24.50;;;;;;;-5.05;100.00;102368.56;5038970;28;20466;-73
2024/01/11 10:18:34;;;;;;;48.50;23.37;;;;;;;-4.98;100.00;102363.50;5037826;28;20963;-72
2024/01/11 10:21:02;;;;;;;57.03;25.93;;;;;;;-4.90;100.00;102355.66;5038965;28;20500;-73
2024/01/11 10:23:29;;;;;;;52.50;25.57;;;;;;;-4.83;100.00;102339.31;5035616;28;20461;-73
2024/01/11 10:25:57;;;;;;;52.43;25.23;;;;;;;-4.75;100.00;102346.94;5034955;28;20477;-73
2024/01/11 10:28:24;;;;;;;44.57;21.83;;;;;;;-4.64;100.00;102331.00;5035885;28;20477;-73
2024/01/11 10:30:52;;;;;;;41.13;20.53;;;;;;;-4.57;100.00;102338.78;5037707;28;20465;-73
2024/01/11 10:33:20;;;;;;;42.77;20.90;;;;;;;-4.50;100.00;102330.13;5041852;28;20469;-72
2024/01/11 10:35:48;;;;;;;39.10;18.93;;;;;;;-4.43;100.00;102340.50;5038836;28;20482;-72
2024/01/11 10:38:16;;;;;;;35.20;19.37;;;;;;;-4.37;100.00;102337.19;5040270;28;20477;-73
2024/01/11 10:40:43;;;;;;;39.87;21.30;;;;;;;-4.29;100.00;102353.34;5040682;28;20830;-74
2024/01/11 10:43:13;;;;;;;41.87;19.17;;;;;;;-4.22;100.00;102332.75;5039674;28;20541;-72
2024/01/11 10:45:39;;;;;;;37.60;18.67;;;;;;;-4.14;100.00;102338.56;5041045;28;20987;-72
2024/01/11 10:48:12;;;;;;;39.03;18.70;;;;;;;-4.06;100.00;102333.28;5040050;28;20574;-72
2024/01/11 10:50:43;;;;;;;41.20;18.30;;;;;;;-3.97;100.00;102334.75;5041700;28;20539;-73
2024/01/11 10:53:18;;;;;;;37.07;17.70;;;;;;;-3.86;100.00;102331.66;5037165;28;20537;-73
2024/01/11 10:55:45;;;;;;;35.63;18.50;;;;;;;-3.80;100.00;102330.09;5041462;28;20491;-73
2024/01/11 10:58:14;;;;;;;41.50;19.23;;;;;;;-3.73;100.00;102325.78;5035863;28;20523;-72
2024/01/11 11:00:41;;;;;;;46.07;19.57;;;;;;;-3.64;100.00;102329.81;5043708;28;20456;-73